| time (UTC) | temp F | wind direction | speed MPH | gust MPH | rain 1hr in | rain 24hr in | rain mn in | humidity % | barometer mb |
| 20260510225021 | 83 | 268 | 3.0 | 3.0 | 0.00 | 0.00 | 0.00 | 37 | 1011.4 |
| 20260510224517 | 83 | 126 | 0.0 | 0.0 | 0.00 | 0.00 | 0.00 | 36 | 1011.5 |
| 20260510224013 | 82 | 290 | 1.0 | 2.0 | 0.00 | 0.00 | 0.00 | 37 | 1011.4 |
| 20260510223511 | 84 | 177 | 1.0 | 2.0 | 0.00 | 0.00 | 0.00 | 36 | 1011.3 |
| 20260510223008 | 83 | 273 | 0.0 | 0.0 | 0.00 | 0.00 | 0.00 | 36 | 1011.4 |
| 20260510222506 | 86 | 115 | 0.0 | 0.0 | 0.00 | 0.00 | 0.00 | 35 | 1011.4 |
| 20260510222002 | 84 | 130 | 0.0 | 0.0 | 0.00 | 0.00 | 0.00 | 35 | 1011.3 |
| 20260510221457 | 83 | 282 | 2.0 | 2.0 | 0.00 | 0.00 | 0.00 | 35 | 1011.5 |
| 20260510220954 | 84 | 159 | 0.0 | 0.0 | 0.00 | 0.00 | 0.00 | 35 | 1011.4 |
| 20260510220450 | 84 | 260 | 2.0 | 4.0 | 0.00 | 0.00 | 0.00 | 35 | 1011.4 |
| 20260510215946 | 84 | 280 | 3.0 | 4.0 | 0.00 | 0.00 | 0.00 | 34 | 1011.3 |
| 20260510215444 | 85 | 334 | 0.0 | 1.0 | 0.00 | 0.00 | 0.00 | 34 | 1011.4 |
| 20260510214942 | 87 | 255 | 0.0 | 0.0 | 0.00 | 0.00 | 0.00 | 32 | 1011.3 |
| 20260510214438 | 87 | 161 | 0.0 | 0.0 | 0.00 | 0.00 | 0.00 | 34 | 1011.2 |
| 20260510213935 | 86 | 101 | 0.0 | 0.0 | 0.00 | 0.00 | 0.00 | 36 | 1011.2 |
| 20260510213432 | 87 | 192 | 0.0 | 1.0 | 0.00 | 0.00 | 0.00 | 35 | 1011.2 |
| 20260510212928 | 86 | 191 | 0.0 | 0.0 | 0.00 | 0.00 | 0.00 | 35 | 1011.3 |
| 20260510212426 | 85 | 118 | 1.0 | 3.0 | 0.00 | 0.00 | 0.00 | 36 | 1011.3 |
| 20260510211922 | 84 | 79 | 0.0 | 0.0 | 0.00 | 0.00 | 0.00 | 38 | 1011.2 |
| 20260510211420 | 84 | 267 | 2.0 | 4.0 | 0.00 | 0.00 | 0.00 | 38 | 1011.3 |
| 20260510210919 | 84 | 249 | 1.0 | 1.0 | 0.00 | 0.00 | 0.00 | 36 | 1011.0 |
| 20260510210414 | 88 | 286 | 0.0 | 1.0 | 0.00 | 0.00 | 0.00 | 34 | 1011.1 |
| 20260510205914 | 85 | 61 | 0.0 | 0.0 | 0.00 | 0.00 | 0.00 | 37 | 1011.0 |
| 20260510205409 | 85 | 40 | 0.0 | 0.0 | 0.00 | 0.00 | 0.00 | 36 | 1011.1 |
| 20260510204905 | 86 | 40 | 0.0 | 0.0 | 0.00 | 0.00 | 0.00 | 37 | 1011.1 |
| 20260510204402 | 86 | 39 | 0.0 | 0.0 | 0.00 | 0.00 | 0.00 | 36 | 1011.2 |
| 20260510203858 | 84 | 272 | 0.0 | 0.0 | 0.00 | 0.00 | 0.00 | 39 | 1011.1 |
| 20260510203356 | 83 | 246 | 0.0 | 0.0 | 0.00 | 0.00 | 0.00 | 38 | 1011.1 |
| 20260510202856 | 83 | 234 | 0.0 | 0.0 | 0.00 | 0.00 | 0.00 | 41 | 1011.4 |
| 20260510202352 | 83 | 51 | 0.0 | 0.0 | 0.00 | 0.00 | 0.00 | 40 | 1011.3 |
| 20260510201849 | 85 | 44 | 0.0 | 0.0 | 0.00 | 0.00 | 0.00 | 39 | 1011.3 |
| 20260510201347 | 85 | 249 | 0.0 | 0.0 | 0.00 | 0.00 | 0.00 | 36 | 1011.6 |
| 20260510200843 | 84 | 8 | 0.0 | 0.0 | 0.00 | 0.00 | 0.00 | 38 | 1011.4 |
| 20260510200342 | 84 | 232 | 0.0 | 0.0 | 0.00 | 0.00 | 0.00 | 37 | 1011.5 |
| 20260510195836 | 83 | 284 | 0.0 | 1.0 | 0.00 | 0.00 | 0.00 | 39 | 1011.3 |
| 20260510195334 | 82 | 273 | 4.0 | 4.0 | 0.00 | 0.00 | 0.00 | 39 | 1011.6 |
| 20260510194828 | 83 | 290 | 0.0 | 0.0 | 0.00 | 0.00 | 0.00 | 39 | 1011.6 |
| 20260510194325 | 82 | 85 | 0.0 | 0.0 | 0.00 | 0.00 | 0.00 | 39 | 1011.4 |
| 20260510193821 | 82 | 41 | 0.0 | 1.0 | 0.00 | 0.00 | 0.00 | 39 | 1011.6 |
| 20260510193316 | 81 | 322 | 0.0 | 1.0 | 0.00 | 0.00 | 0.00 | 40 | 1011.7 |
| 20260510192812 | 84 | 181 | 1.0 | 2.0 | 0.00 | 0.00 | 0.00 | 39 | 1011.7 |
| 20260510192307 | 83 | 84 | 0.0 | 0.0 | 0.00 | 0.00 | 0.00 | 39 | 1011.7 |
| 20260510191804 | 81 | 286 | 0.0 | 0.0 | 0.00 | 0.00 | 0.00 | 39 | 1011.7 |
| 20260510191259 | 80 | 281 | 1.0 | 3.0 | 0.00 | 0.00 | 0.00 | 40 | 1011.6 |
| 20260510190758 | 80 | 304 | 0.0 | 1.0 | 0.00 | 0.00 | 0.00 | 40 | 1011.8 |
| 20260510190254 | 81 | 222 | 0.0 | 0.0 | 0.00 | 0.00 | 0.00 | 40 | 1011.7 |
| 20260510185750 | 83 | 266 | 2.0 | 3.0 | 0.00 | 0.00 | 0.00 | 38 | 1011.7 |
| 20260510185249 | 83 | 171 | 0.0 | 0.0 | 0.00 | 0.00 | 0.00 | 39 | 1011.7 |
| 20260510184746 | 81 | 146 | 0.0 | 0.0 | 0.00 | 0.00 | 0.00 | 38 | 1011.8 |
| 20260510184243 | 80 | 89 | 0.0 | 0.0 | 0.00 | 0.00 | 0.00 | 41 | 1011.7 |
| 20260510183743 | 82 | 166 | 0.0 | 0.0 | 0.00 | 0.00 | 0.00 | 40 | 1011.6 |
| 20260510183238 | 85 | 312 | 0.0 | 0.0 | 0.00 | 0.00 | 0.00 | 37 | 1011.9 |
| 20260510182735 | 85 | 104 | 0.0 | 0.0 | 0.00 | 0.00 | 0.00 | 38 | 1011.9 |
| 20260510182230 | 82 | 143 | 0.0 | 0.0 | 0.00 | 0.00 | 0.00 | 40 | 1011.9 |
| 20260510181727 | 79 | 67 | 0.0 | 0.0 | 0.00 | 0.00 | 0.00 | 42 | 1011.9 |
| 20260510181225 | 82 | 294 | 0.0 | 1.0 | 0.00 | 0.00 | 0.00 | 38 | 1012.2 |
| 20260510180720 | 81 | 165 | 1.0 | 1.0 | 0.00 | 0.00 | 0.00 | 40 | 1012.2 |
| 20260510180218 | 82 | 278 | 6.0 | 8.0 | 0.00 | 0.00 | 0.00 | 38 | 1012.2 |
| 20260510175714 | 83 | 99 | 0.0 | 0.0 | 0.00 | 0.00 | 0.00 | 39 | 1012.2 |
| 20260510175210 | 84 | 110 | 0.0 | 0.0 | 0.00 | 0.00 | 0.00 | 38 | 1012.2 |
| 20260510174707 | 81 | 150 | 0.0 | 0.0 | 0.00 | 0.00 | 0.00 | 40 | 1012.3 |
| 20260510174205 | 82 | 231 | 1.0 | 3.0 | 0.00 | 0.00 | 0.00 | 39 | 1012.3 |
| 20260510173700 | 80 | 40 | 0.0 | 0.0 | 0.00 | 0.00 | 0.00 | 41 | 1012.2 |
| 20260510173157 | 80 | 264 | 3.0 | 6.0 | 0.00 | 0.00 | 0.00 | 40 | 1012.5 |
| 20260510172652 | 82 | 292 | 5.0 | 6.0 | 0.00 | 0.00 | 0.00 | 40 | 1012.4 |
| 20260510172148 | 82 | 190 | 1.0 | 1.0 | 0.00 | 0.00 | 0.00 | 39 | 1012.6 |
| 20260510171645 | 84 | 247 | 2.0 | 2.0 | 0.00 | 0.00 | 0.00 | 35 | 1012.7 |
| 20260510171143 | 82 | 46 | 0.0 | 1.0 | 0.00 | 0.00 | 0.00 | 36 | 1012.6 |
| 20260510170639 | 82 | 237 | 1.0 | 2.0 | 0.00 | 0.00 | 0.00 | 37 | 1012.8 |
| 20260510170136 | 81 | 218 | 1.0 | 2.0 | 0.00 | 0.00 | 0.00 | 39 | 1012.6 |
| 20260510165631 | 82 | 103 | 0.0 | 0.0 | 0.00 | 0.00 | 0.00 | 38 | 1012.7 |
| 20260510165127 | 80 | 101 | 0.0 | 0.0 | 0.00 | 0.00 | 0.00 | 42 | 1012.8 |
| 20260510164625 | 82 | 271 | 1.0 | 2.0 | 0.00 | 0.00 | 0.00 | 38 | 1012.5 |
| 20260510164122 | 81 | 141 | 0.0 | 0.0 | 0.00 | 0.00 | 0.00 | 39 | 1012.7 |
| 20260510163617 | 82 | 213 | 1.0 | 2.0 | 0.00 | 0.00 | 0.00 | 41 | 1012.9 |
| 20260510163113 | 82 | 86 | 0.0 | 0.0 | 0.00 | 0.00 | 0.00 | 40 | 1012.8 |
| 20260510162608 | 80 | 74 | 0.0 | 0.0 | 0.00 | 0.00 | 0.00 | 42 | 1012.9 |
| 20260510162105 | 79 | 276 | 1.0 | 1.0 | 0.00 | 0.00 | 0.00 | 46 | 1012.6 |
| 20260510161600 | 80 | 294 | 4.0 | 4.0 | 0.00 | 0.00 | 0.00 | 45 | 1012.7 |
| 20260510161058 | 78 | 145 | 0.0 | 0.0 | 0.00 | 0.00 | 0.00 | 43 | 1012.7 |
| 20260510160555 | 78 | 76 | 0.0 | 0.0 | 0.00 | 0.00 | 0.00 | 46 | 1012.8 |
| 20260510160054 | 79 | 242 | 3.0 | 3.0 | 0.00 | 0.00 | 0.00 | 45 | 1012.9 |
| 20260510155551 | 78 | 188 | 0.0 | 0.0 | 0.00 | 0.00 | 0.00 | 49 | 1012.9 |
| 20260510155047 | 77 | 72 | 0.0 | 0.0 | 0.00 | 0.00 | 0.00 | 50 | 1012.9 |
| 20260510154543 | 76 | 186 | 0.0 | 0.0 | 0.00 | 0.00 | 0.00 | 50 | 1012.8 |
| 20260510154038 | 76 | 157 | 0.0 | 1.0 | 0.00 | 0.00 | 0.00 | 52 | 1012.9 |
| 20260510153533 | 75 | 94 | 0.0 | 0.0 | 0.00 | 0.00 | 0.00 | 51 | 1012.8 |
| 20260510153031 | 75 | 224 | 1.0 | 1.0 | 0.00 | 0.00 | 0.00 | 52 | 1012.9 |
| 20260510152527 | 76 | 208 | 1.0 | 1.0 | 0.00 | 0.00 | 0.00 | 51 | 1012.8 |
| 20260510152024 | 76 | 77 | 0.0 | 0.0 | 0.00 | 0.00 | 0.00 | 51 | 1012.8 |
| 20260510151520 | 76 | 293 | 1.0 | 1.0 | 0.00 | 0.00 | 0.00 | 52 | 1012.7 |
| 20260510151018 | 75 | 93 | 1.0 | 1.0 | 0.00 | 0.00 | 0.00 | 54 | 1012.8 |
| 20260510150513 | 74 | 66 | 1.0 | 1.0 | 0.00 | 0.00 | 0.00 | 57 | 1012.8 |
| 20260510150009 | 74 | 74 | 1.0 | 1.0 | 0.00 | 0.00 | 0.00 | 59 | 1012.9 |
| 20260510145506 | 74 | 79 | 0.0 | 2.0 | 0.00 | 0.00 | 0.00 | 58 | 1012.8 |
| 20260510145002 | 74 | 66 | 1.0 | 1.0 | 0.00 | 0.00 | 0.00 | 62 | 1012.7 |
| 20260510144500 | 73 | 74 | 0.0 | 0.0 | 0.00 | 0.00 | 0.00 | 65 | 1012.7 |
| 20260510143955 | 73 | 83 | 0.0 | 2.0 | 0.00 | 0.00 | 0.00 | 65 | 1012.6 |
| 20260510143451 | 73 | 54 | 0.0 | 1.0 | 0.00 | 0.00 | 0.00 | 65 | 1012.7 |
| 20260510142948 | 72 | 63 | 0.0 | 1.0 | 0.00 | 0.00 | 0.00 | 67 | 1012.5 |
| 20260510142444 | 72 | 82 | 0.0 | 0.0 | 0.00 | 0.00 | 0.00 | 70 | 1012.6 |
| 20260510141941 | 73 | 82 | 0.0 | 1.0 | 0.00 | 0.00 | 0.00 | 71 | 1012.5 |
| 20260510141438 | 72 | 81 | 0.0 | 0.0 | 0.00 | 0.00 | 0.00 | 72 | 1012.5 |
| 20260510140935 | 72 | 81 | 0.0 | 0.0 | 0.00 | 0.00 | 0.00 | 72 | 1012.4 |
| 20260510140432 | 72 | 83 | 0.0 | 0.0 | 0.00 | 0.00 | 0.00 | 71 | 1012.6 |
| 20260510135930 | 71 | 77 | 0.0 | 0.0 | 0.00 | 0.00 | 0.00 | 74 | 1012.5 |
| 20260510135426 | 71 | 80 | 0.0 | 0.0 | 0.00 | 0.00 | 0.00 | 73 | 1012.6 |
| 20260510134924 | 71 | 76 | 1.0 | 2.0 | 0.00 | 0.00 | 0.00 | 77 | 1012.6 |
| 20260510134420 | 70 | 79 | 0.0 | 0.0 | 0.00 | 0.00 | 0.00 | 77 | 1012.5 |
| 20260510133916 | 70 | 79 | 0.0 | 0.0 | 0.00 | 0.00 | 0.00 | 79 | 1012.5 |
| 20260510133413 | 70 | 79 | 0.0 | 0.0 | 0.00 | 0.00 | 0.00 | 78 | 1012.5 |
| 20260510132908 | 69 | 79 | 0.0 | 0.0 | 0.00 | 0.00 | 0.00 | 80 | 1012.6 |
| 20260510132407 | 69 | 90 | 0.0 | 0.0 | 0.00 | 0.00 | 0.00 | 81 | 1012.4 |
| 20260510131903 | 69 | 89 | 0.0 | 0.0 | 0.00 | 0.00 | 0.00 | 83 | 1012.6 |
| 20260510131401 | 68 | 89 | 0.0 | 0.0 | 0.00 | 0.00 | 0.00 | 84 | 1012.6 |
| 20260510130857 | 68 | 119 | 0.0 | 0.0 | 0.00 | 0.00 | 0.00 | 87 | 1012.6 |
| 20260510130354 | 67 | 124 | 0.0 | 0.0 | 0.00 | 0.00 | 0.00 | 88 | 1012.4 |
| 20260510125851 | 67 | 124 | 0.0 | 0.0 | 0.00 | 0.00 | 0.00 | 91 | 1012.4 |
| 20260510125347 | 66 | 219 | 0.0 | 0.0 | 0.00 | 0.00 | 0.00 | 91 | 1012.3 |
| 20260510124844 | 65 | 225 | 0.0 | 0.0 | 0.00 | 0.00 | 0.00 | 92 | 1012.3 |
| 20260510124341 | 65 | 233 | 0.0 | 0.0 | 0.00 | 0.00 | 0.00 | 93 | 1012.3 |
| 20260510123836 | 64 | 234 | 0.0 | 0.0 | 0.00 | 0.00 | 0.00 | 94 | 1012.1 |
| 20260510123332 | 64 | 247 | 0.0 | 0.0 | 0.00 | 0.00 | 0.00 | 94 | 1012.1 |
| 20260510122829 | 64 | 234 | 0.0 | 0.0 | 0.00 | 0.00 | 0.00 | 95 | 1012.2 |
| 20260510122324 | 63 | 245 | 0.0 | 0.0 | 0.00 | 0.00 | 0.00 | 96 | 1012.0 |
| 20260510121821 | 62 | 236 | 0.0 | 0.0 | 0.00 | 0.00 | 0.00 | 98 | 1012.1 |
| 20260510121319 | 62 | 240 | 0.0 | 0.0 | 0.00 | 0.00 | 0.00 | 99 | 1012.1 |
| 20260510120816 | 62 | 228 | 0.0 | 0.0 | 0.00 | 0.00 | 0.00 | 99 | 1011.8 |
| 20260510120312 | 61 | 286 | 0.0 | 0.0 | 0.00 | 0.00 | 0.00 | 99 | 1012.0 |
| 20260510115808 | 61 | 286 | 0.0 | 0.0 | 0.00 | 0.00 | 0.00 | 99 | 1011.8 |
| 20260510115307 | 61 | 220 | 0.0 | 0.0 | 0.00 | 0.00 | 0.00 | 99 | 1011.7 |
| 20260510114801 | 60 | 215 | 0.0 | 0.0 | 0.00 | 0.00 | 0.00 | 99 | 1011.7 |
| 20260510114259 | 60 | 222 | 0.0 | 0.0 | 0.00 | 0.00 | 0.00 | 99 | 1011.5 |
| 20260510113759 | 60 | 222 | 0.0 | 0.0 | 0.00 | 0.00 | 0.00 | 99 | 1011.4 |
| 20260510113257 | 59 | 222 | 0.0 | 0.0 | 0.00 | 0.00 | 0.00 | 99 | 1011.3 |
| 20260510112753 | 59 | 222 | 0.0 | 0.0 | 0.00 | 0.00 | 0.00 | 99 | 1011.2 |
| 20260510112250 | 59 | 222 | 0.0 | 0.0 | 0.00 | 0.00 | 0.00 | 99 | 1011.3 |
| 20260510111746 | 59 | 222 | 0.0 | 0.0 | 0.00 | 0.00 | 0.00 | 99 | 1011.3 |
| 20260510111243 | 59 | 222 | 0.0 | 0.0 | 0.00 | 0.00 | 0.00 | 99 | 1011.2 |
| 20260510110742 | 59 | 222 | 0.0 | 0.0 | 0.00 | 0.00 | 0.00 | 99 | 1011.2 |
| 20260510110241 | 59 | 222 | 0.0 | 0.0 | 0.00 | 0.00 | 0.00 | 99 | 1011.1 |
| 20260510105740 | 59 | 223 | 0.0 | 0.0 | 0.00 | 0.00 | 0.00 | 99 | 1011.0 |
| 20260510105235 | 59 | 223 | 0.0 | 0.0 | 0.00 | 0.00 | 0.00 | 99 | 1010.8 |
| 20260510104732 | 59 | 223 | 0.0 | 0.0 | 0.00 | 0.00 | 0.00 | 99 | 1010.6 |
| 20260510104230 | 59 | 223 | 0.0 | 0.0 | 0.00 | 0.00 | 0.00 | 99 | 1010.7 |
| 20260510103725 | 59 | 221 | 0.0 | 0.0 | 0.00 | 0.00 | 0.00 | 99 | 1010.7 |
| 20260510103223 | 59 | 220 | 0.0 | 0.0 | 0.00 | 0.00 | 0.00 | 99 | 1010.8 |
| 20260510102722 | 59 | 220 | 0.0 | 0.0 | 0.00 | 0.00 | 0.00 | 99 | 1010.6 |
| 20260510102218 | 59 | 220 | 0.0 | 0.0 | 0.00 | 0.00 | 0.00 | 99 | 1010.7 |
| 20260510101716 | 60 | 221 | 0.0 | 0.0 | 0.00 | 0.00 | 0.00 | 99 | 1010.6 |
| 20260510101215 | 60 | 221 | 0.0 | 0.0 | 0.00 | 0.00 | 0.00 | 99 | 1010.6 |
| 20260510100710 | 60 | 221 | 0.0 | 0.0 | 0.00 | 0.00 | 0.00 | 99 | 1010.3 |
| 20260510100208 | 60 | 221 | 0.0 | 0.0 | 0.00 | 0.00 | 0.00 | 99 | 1010.3 |
| 20260510095703 | 60 | 221 | 0.0 | 0.0 | 0.00 | 0.00 | 0.00 | 99 | 1010.3 |
| 20260510095159 | 60 | 221 | 0.0 | 0.0 | 0.00 | 0.00 | 0.00 | 99 | 1010.1 |
| 20260510094657 | 60 | 221 | 0.0 | 0.0 | 0.00 | 0.00 | 0.00 | 99 | 1010.0 |
| 20260510094154 | 60 | 221 | 0.0 | 0.0 | 0.00 | 0.00 | 0.00 | 99 | 1010.1 |
| 20260510093649 | 60 | 221 | 0.0 | 0.0 | 0.00 | 0.00 | 0.00 | 99 | 1009.9 |
| 20260510093147 | 60 | 221 | 0.0 | 0.0 | 0.00 | 0.00 | 0.00 | 99 | 1010.0 |
| 20260510092643 | 60 | 225 | 0.0 | 0.0 | 0.00 | 0.00 | 0.00 | 99 | 1010.0 |
| 20260510092139 | 60 | 223 | 0.0 | 0.0 | 0.00 | 0.00 | 0.00 | 99 | 1009.9 |
| 20260510091635 | 61 | 222 | 0.0 | 0.0 | 0.00 | 0.00 | 0.00 | 99 | 1009.7 |
| 20260510091131 | 61 | 223 | 0.0 | 0.0 | 0.00 | 0.00 | 0.00 | 99 | 1009.7 |
| 20260510090628 | 61 | 222 | 0.0 | 0.0 | 0.00 | 0.00 | 0.00 | 99 | 1009.7 |
| 20260510090125 | 61 | 222 | 0.0 | 0.0 | 0.00 | 0.00 | 0.00 | 99 | 1009.7 |
| 20260510085619 | 61 | 223 | 0.0 | 0.0 | 0.00 | 0.00 | 0.00 | 99 | 1009.7 |
| 20260510085115 | 61 | 240 | 0.0 | 0.0 | 0.00 | 0.00 | 0.00 | 99 | 1009.6 |
| 20260510084612 | 61 | 240 | 0.0 | 0.0 | 0.00 | 0.00 | 0.00 | 99 | 1009.6 |
| 20260510084108 | 61 | 240 | 0.0 | 0.0 | 0.00 | 0.00 | 0.00 | 99 | 1009.5 |
| 20260510083605 | 61 | 241 | 0.0 | 0.0 | 0.00 | 0.00 | 0.00 | 99 | 1009.5 |
| 20260510083101 | 61 | 250 | 0.0 | 0.0 | 0.00 | 0.00 | 0.00 | 99 | 1009.1 |
| 20260510082558 | 61 | 250 | 0.0 | 0.0 | 0.00 | 0.00 | 0.00 | 98 | 1009.3 |
| 20260510082054 | 61 | 249 | 0.0 | 0.0 | 0.00 | 0.00 | 0.00 | 98 | 1009.1 |
| 20260510081549 | 61 | 250 | 0.0 | 0.0 | 0.00 | 0.00 | 0.00 | 98 | 1009.0 |
| 20260510081045 | 61 | 249 | 0.0 | 0.0 | 0.00 | 0.00 | 0.00 | 98 | 1009.0 |
| 20260510080544 | 61 | 250 | 0.0 | 0.0 | 0.00 | 0.00 | 0.00 | 98 | 1008.9 |
| 20260510080041 | 61 | 250 | 0.0 | 0.0 | 0.00 | 0.00 | 0.00 | 98 | 1008.6 |
| 20260510075538 | 61 | 250 | 0.0 | 0.0 | 0.00 | 0.00 | 0.00 | 98 | 1008.8 |
| 20260510075035 | 62 | 250 | 0.0 | 1.0 | 0.00 | 0.00 | 0.00 | 98 | 1008.8 |
| 20260510074533 | 62 | 250 | 0.0 | 0.0 | 0.00 | 0.00 | 0.00 | 98 | 1008.8 |
| 20260510074028 | 62 | 250 | 0.0 | 0.0 | 0.00 | 0.00 | 0.00 | 97 | 1008.9 |
| 20260510073524 | 62 | 215 | 0.0 | 0.0 | 0.00 | 0.00 | 0.00 | 97 | 1008.9 |
| 20260510073021 | 62 | 218 | 0.0 | 0.0 | 0.00 | 0.00 | 0.00 | 97 | 1008.8 |
| 20260510072518 | 62 | 235 | 0.0 | 1.0 | 0.00 | 0.00 | 0.00 | 97 | 1008.7 |
| 20260510072013 | 62 | 259 | 1.0 | 1.0 | 0.00 | 0.00 | 0.00 | 97 | 1008.9 |
| 20260510071510 | 62 | 250 | 0.0 | 1.0 | 0.00 | 0.00 | 0.00 | 97 | 1008.8 |
| 20260510071009 | 62 | 232 | 0.0 | 0.0 | 0.00 | 0.00 | 0.00 | 97 | 1008.8 |
| 20260510070505 | 62 | 261 | 1.0 | 2.0 | 0.00 | 0.00 | 0.00 | 97 | 1008.8 |
| 20260510070000 | 62 | 238 | 0.0 | 0.0 | 0.00 | 0.00 | 0.00 | 96 | 1008.6 |
| 20260510065458 | 62 | 267 | 0.0 | 0.0 | 0.00 | 0.00 | 0.00 | 96 | 1008.7 |
| 20260510064954 | 62 | 242 | 0.0 | 0.0 | 0.00 | 0.00 | 0.00 | 96 | 1008.8 |
| 20260510064451 | 62 | 280 | 2.0 | 2.0 | 0.00 | 0.00 | 0.00 | 96 | 1008.7 |
| 20260510063948 | 62 | 264 | 1.0 | 1.0 | 0.00 | 0.00 | 0.00 | 96 | 1008.7 |
| 20260510063444 | 62 | 254 | 1.0 | 1.0 | 0.00 | 0.00 | 0.00 | 96 | 1008.8 |
| 20260510062943 | 63 | 274 | 2.0 | 2.0 | 0.00 | 0.00 | 0.00 | 96 | 1009.0 |
| 20260510062442 | 63 | 288 | 2.0 | 3.0 | 0.00 | 0.00 | 0.00 | 96 | 1008.9 |
| 20260510061938 | 63 | 247 | 2.0 | 2.0 | 0.00 | 0.00 | 0.00 | 95 | 1009.0 |
| 20260510061435 | 63 | 240 | 2.0 | 2.0 | 0.00 | 0.00 | 0.00 | 95 | 1009.1 |
| 20260510060931 | 63 | 295 | 0.0 | 0.0 | 0.00 | 0.00 | 0.00 | 95 | 1008.9 |
| 20260510060428 | 63 | 280 | 0.0 | 0.0 | 0.00 | 0.00 | 0.00 | 95 | 1008.9 |
| 20260510055924 | 63 | 240 | 0.0 | 0.0 | 0.00 | 0.00 | 0.00 | 95 | 1008.7 |
| 20260510055420 | 63 | 228 | 0.0 | 0.0 | 0.00 | 0.00 | 0.00 | 95 | 1008.8 |
| 20260510054918 | 63 | 219 | 0.0 | 0.0 | 0.00 | 0.00 | 0.00 | 95 | 1009.1 |
| 20260510054414 | 63 | 256 | 1.0 | 1.0 | 0.00 | 0.00 | 0.00 | 95 | 1009.0 |
| 20260510053909 | 63 | 219 | 0.0 | 0.0 | 0.00 | 0.00 | 0.00 | 95 | 1008.8 |
| 20260510053405 | 63 | 278 | 0.0 | 0.0 | 0.00 | 0.00 | 0.00 | 95 | 1008.9 |
| 20260510052901 | 63 | 278 | 0.0 | 0.0 | 0.00 | 0.00 | 0.00 | 95 | 1009.1 |
| 20260510052357 | 63 | 253 | 1.0 | 2.0 | 0.00 | 0.00 | 0.00 | 95 | 1009.3 |
| 20260510051853 | 63 | 271 | 2.0 | 2.0 | 0.00 | 0.00 | 0.00 | 95 | 1009.0 |
| 20260510051350 | 63 | 219 | 0.0 | 0.0 | 0.00 | 0.00 | 0.00 | 95 | 1009.1 |
| 20260510050847 | 63 | 280 | 0.0 | 0.0 | 0.00 | 0.00 | 0.00 | 94 | 1009.3 |
| 20260510050343 | 63 | 281 | 0.0 | 0.0 | 0.00 | 0.00 | 0.00 | 94 | 1009.1 |
| 20260510045840 | 63 | 281 | 0.0 | 1.0 | 0.00 | 0.00 | 0.00 | 94 | 1009.0 |
| 20260510045337 | 64 | 229 | 0.0 | 0.0 | 0.00 | 0.00 | 0.00 | 94 | 1008.9 |
| 20260510044834 | 64 | 287 | 0.0 | 0.0 | 0.00 | 0.00 | 0.00 | 94 | 1009.1 |
| 20260510044331 | 64 | 281 | 0.0 | 0.0 | 0.00 | 0.00 | 0.00 | 94 | 1009.1 |
| 20260510043828 | 64 | 201 | 0.0 | 0.0 | 0.00 | 0.00 | 0.00 | 94 | 1009.3 |
| 20260510043323 | 64 | 203 | 0.0 | 0.0 | 0.00 | 0.00 | 0.00 | 94 | 1009.1 |
| 20260510042822 | 64 | 203 | 0.0 | 0.0 | 0.00 | 0.00 | 0.00 | 93 | 1009.3 |
| 20260510042317 | 64 | 203 | 0.0 | 0.0 | 0.00 | 0.00 | 0.00 | 93 | 1009.3 |
| 20260510041814 | 64 | 203 | 0.0 | 0.0 | 0.00 | 0.00 | 0.00 | 93 | 1009.0 |
| 20260510041311 | 64 | 203 | 0.0 | 0.0 | 0.00 | 0.00 | 0.00 | 93 | 1009.1 |
| 20260510040808 | 64 | 202 | 0.0 | 0.0 | 0.00 | 0.00 | 0.00 | 93 | 1008.9 |
| 20260510040305 | 64 | 204 | 0.0 | 0.0 | 0.00 | 0.00 | 0.00 | 93 | 1009.1 |
| 20260510035800 | 64 | 208 | 0.0 | 0.0 | 0.00 | 0.00 | 0.00 | 93 | 1009.3 |
| 20260510035256 | 64 | 240 | 0.0 | 0.0 | 0.00 | 0.00 | 0.00 | 92 | 1009.3 |
| 20260510034752 | 64 | 281 | 0.0 | 0.0 | 0.00 | 0.00 | 0.00 | 92 | 1009.1 |
| 20260510034250 | 64 | 221 | 1.0 | 1.0 | 0.00 | 0.00 | 0.00 | 92 | 1009.1 |
| 20260510033746 | 65 | 227 | 0.0 | 0.0 | 0.00 | 0.00 | 0.00 | 92 | 1009.4 |
| 20260510033244 | 65 | 250 | 2.0 | 2.0 | 0.00 | 0.00 | 0.00 | 91 | 1009.3 |
| 20260510032740 | 65 | 252 | 2.0 | 2.0 | 0.00 | 0.00 | 0.00 | 91 | 1009.1 |
| 20260510032236 | 65 | 286 | 3.0 | 4.0 | 0.00 | 0.00 | 0.00 | 91 | 1009.5 |
| 20260510031732 | 65 | 241 | 1.0 | 1.0 | 0.00 | 0.00 | 0.00 | 91 | 1009.4 |
| 20260510031227 | 65 | 269 | 2.0 | 2.0 | 0.00 | 0.00 | 0.00 | 91 | 1009.1 |
| 20260510030727 | 65 | 268 | 0.0 | 0.0 | 0.00 | 0.00 | 0.00 | 91 | 1009.1 |
| 20260510030225 | 65 | 252 | 0.0 | 0.0 | 0.00 | 0.00 | 0.00 | 91 | 1009.1 |
| 20260510025722 | 65 | 239 | 0.0 | 1.0 | 0.00 | 0.00 | 0.00 | 91 | 1009.4 |
| 20260510025219 | 65 | 286 | 2.0 | 3.0 | 0.00 | 0.00 | 0.00 | 90 | 1009.4 |
| 20260510024716 | 65 | 263 | 0.0 | 1.0 | 0.00 | 0.00 | 0.00 | 90 | 1009.4 |
| 20260510024212 | 65 | 297 | 0.0 | 1.0 | 0.00 | 0.00 | 0.00 | 90 | 1009.3 |
| 20260510023708 | 65 | 256 | 1.0 | 1.0 | 0.00 | 0.00 | 0.00 | 90 | 1009.3 |
| 20260510023206 | 66 | 261 | 0.0 | 0.0 | 0.00 | 0.00 | 0.00 | 90 | 1009.1 |
| 20260510022701 | 66 | 229 | 1.0 | 2.0 | 0.00 | 0.00 | 0.00 | 90 | 1009.4 |
| 20260510022156 | 66 | 230 | 0.0 | 1.0 | 0.00 | 0.00 | 0.00 | 90 | 1009.1 |
| 20260510021652 | 66 | 300 | 1.0 | 1.0 | 0.00 | 0.00 | 0.00 | 89 | 1009.1 |
| 20260510021150 | 66 | 244 | 0.0 | 0.0 | 0.00 | 0.00 | 0.00 | 89 | 1009.0 |
| 20260510020649 | 66 | 250 | 1.0 | 1.0 | 0.00 | 0.00 | 0.00 | 89 | 1009.3 |
| 20260510020145 | 66 | 229 | 0.0 | 0.0 | 0.00 | 0.00 | 0.00 | 89 | 1009.1 |
| 20260510015641 | 66 | 267 | 1.0 | 1.0 | 0.00 | 0.00 | 0.00 | 88 | 1008.9 |
| 20260510015138 | 66 | 294 | 1.0 | 1.0 | 0.00 | 0.00 | 0.00 | 88 | 1009.0 |
| 20260510014638 | 66 | 258 | 1.0 | 1.0 | 0.00 | 0.00 | 0.00 | 88 | 1008.9 |
| 20260510014136 | 67 | 284 | 0.0 | 0.0 | 0.00 | 0.00 | 0.00 | 88 | 1008.7 |
| 20260510013637 | 67 | 287 | 0.0 | 0.0 | 0.00 | 0.00 | 0.00 | 87 | 1008.8 |
| 20260510013132 | 67 | 240 | 1.0 | 1.0 | 0.00 | 0.00 | 0.00 | 87 | 1008.7 |
| 20260510012632 | 67 | 237 | 0.0 | 0.0 | 0.00 | 0.00 | 0.00 | 87 | 1008.6 |
| 20260510012129 | 67 | 258 | 1.0 | 2.0 | 0.00 | 0.00 | 0.00 | 86 | 1008.5 |
| 20260510011628 | 67 | 269 | 2.0 | 2.0 | 0.00 | 0.00 | 0.00 | 86 | 1008.4 |
| 20260510011125 | 67 | 288 | 2.0 | 2.0 | 0.00 | 0.00 | 0.00 | 86 | 1008.4 |
| 20260510010621 | 67 | 263 | 2.0 | 2.0 | 0.00 | 0.00 | 0.00 | 85 | 1008.2 |
| 20260510010118 | 68 | 254 | 1.0 | 1.0 | 0.00 | 0.00 | 0.00 | 85 | 1008.0 |
| 20260510005613 | 68 | 284 | 0.0 | 1.0 | 0.00 | 0.00 | 0.00 | 84 | 1008.1 |
| 20260510005111 | 68 | 276 | 0.0 | 0.0 | 0.00 | 0.00 | 0.00 | 84 | 1008.0 |
| 20260510004609 | 68 | 338 | 1.0 | 2.0 | 0.00 | 0.00 | 0.00 | 84 | 1007.9 |
| 20260510004107 | 68 | 244 | 2.0 | 2.0 | 0.00 | 0.00 | 0.00 | 83 | 1007.8 |
| 20260510003604 | 68 | 326 | 1.0 | 1.0 | 0.00 | 0.00 | 0.00 | 83 | 1007.7 |
| 20260510003059 | 68 | 55 | 0.0 | 0.0 | 0.00 | 0.00 | 0.00 | 83 | 1007.8 |
| 20260510002554 | 68 | 46 | 0.0 | 0.0 | 0.00 | 0.00 | 0.00 | 83 | 1007.8 |
| 20260510002051 | 69 | 274 | 0.0 | 0.0 | 0.00 | 0.00 | 0.00 | 83 | 1007.4 |
| 20260510001548 | 69 | 257 | 1.0 | 1.0 | 0.00 | 0.00 | 0.00 | 82 | 1007.5 |
| 20260510001048 | 69 | 278 | 0.0 | 0.0 | 0.00 | 0.00 | 0.00 | 82 | 1007.5 |
| 20260510000542 | 69 | 266 | 2.0 | 2.0 | 0.00 | 0.00 | 0.00 | 82 | 1007.4 |
| 20260510000039 | 69 | 219 | 0.0 | 0.0 | 0.00 | 0.00 | 0.00 | 81 | 1007.2 |
| 20260509235536 | 69 | 240 | 1.0 | 2.0 | 0.00 | 0.00 | 0.00 | 80 | 1007.2 |
| 20260509235032 | 70 | 290 | 1.0 | 1.0 | 0.00 | 0.00 | 0.00 | 80 | 1007.0 |
| 20260509234528 | 70 | 328 | 0.0 | 0.0 | 0.00 | 0.00 | 0.00 | 79 | 1007.3 |
| 20260509234027 | 70 | 152 | 0.0 | 1.0 | 0.00 | 0.00 | 0.00 | 79 | 1007.3 |
| 20260509233524 | 70 | 198 | 1.0 | 1.0 | 0.00 | 0.00 | 0.00 | 79 | 1007.2 |
| 20260509233021 | 70 | 273 | 2.0 | 2.0 | 0.00 | 0.00 | 0.00 | 78 | 1007.3 |
| 20260509232518 | 70 | 246 | 2.0 | 2.0 | 0.00 | 0.00 | 0.00 | 78 | 1007.1 |
| 20260509232014 | 70 | 284 | 4.0 | 6.0 | 0.00 | 0.00 | 0.00 | 78 | 1007.0 |
| 20260509231511 | 70 | 289 | 3.0 | 4.0 | 0.00 | 0.00 | 0.00 | 77 | 1007.0 |
| 20260509231009 | 71 | 304 | 4.0 | 6.0 | 0.00 | 0.00 | 0.00 | 76 | 1007.0 |
| 20260509230505 | 71 | 294 | 2.0 | 4.0 | 0.00 | 0.00 | 0.00 | 76 | 1007.3 |
| 20260509230002 | 71 | 355 | 1.0 | 1.0 | 0.00 | 0.00 | 0.00 | 76 | 1007.2 |
| 20260509225457 | 71 | 188 | 1.0 | 1.0 | 0.00 | 0.00 | 0.00 | 76 | 1007.2 |